sensor_id;sensor_type;location;lat;lon;timestamp;P1;durP1;ratioP1;P2;durP2;ratioP2
71566;SDS011;59403;47.456;19.120;2024-01-15T00:00:10;59.42;;;24.27;;
71566;SDS011;59403;47.456;19.120;2024-01-15T00:02:37;54.57;;;22.83;;
71566;SDS011;59403;47.456;19.120;2024-01-15T00:05:05;63.53;;;25.80;;
71566;SDS011;59403;47.456;19.120;2024-01-15T00:07:32;59.85;;;26.40;;
71566;SDS011;59403;47.456;19.120;2024-01-15T00:09:59;57.80;;;26.50;;
71566;SDS011;59403;47.456;19.120;2024-01-15T00:12:25;58.20;;;25.30;;
71566;SDS011;59403;47.456;19.120;2024-01-15T00:14:52;70.30;;;28.03;;
71566;SDS011;59403;47.456;19.120;2024-01-15T00:17:19;64.68;;;26.83;;
71566;SDS011;59403;47.456;19.120;2024-01-15T00:19:47;67.93;;;28.80;;
71566;SDS011;59403;47.456;19.120;2024-01-15T00:22:15;71.05;;;28.17;;
71566;SDS011;59403;47.456;19.120;2024-01-15T00:24:42;63.67;;;27.62;;
71566;SDS011;59403;47.456;19.120;2024-01-15T00:27:08;60.47;;;26.03;;
71566;SDS011;59403;47.456;19.120;2024-01-15T00:29:35;61.08;;;25.60;;
71566;SDS011;59403;47.456;19.120;2024-01-15T00:32:02;62.85;;;26.40;;
71566;SDS011;59403;47.456;19.120;2024-01-15T00:34:29;62.80;;;27.75;;
71566;SDS011;59403;47.456;19.120;2024-01-15T00:36:56;72.70;;;28.98;;
71566;SDS011;59403;47.456;19.120;2024-01-15T00:39:23;79.50;;;32.13;;
71566;SDS011;59403;47.456;19.120;2024-01-15T00:41:51;77.50;;;30.37;;
71566;SDS011;59403;47.456;19.120;2024-01-15T00:44:17;68.93;;;29.00;;
71566;SDS011;59403;47.456;19.120;2024-01-15T00:46:44;68.82;;;28.85;;
71566;SDS011;59403;47.456;19.120;2024-01-15T00:49:11;59.35;;;27.35;;
71566;SDS011;59403;47.456;19.120;2024-01-15T00:51:38;57.93;;;25.00;;
71566;SDS011;59403;47.456;19.120;2024-01-15T00:54:05;62.85;;;27.40;;
71566;SDS011;59403;47.456;19.120;2024-01-15T00:56:33;60.70;;;26.50;;
71566;SDS011;59403;47.456;19.120;2024-01-15T00:59:00;62.00;;;27.17;;
71566;SDS011;59403;47.456;19.120;2024-01-15T01:01:27;59.75;;;26.80;;
71566;SDS011;59403;47.456;19.120;2024-01-15T01:03:54;61.60;;;26.67;;
71566;SDS011;59403;47.456;19.120;2024-01-15T01:06:21;61.80;;;27.30;;
71566;SDS011;59403;47.456;19.120;2024-01-15T01:08:48;58.08;;;26.08;;
71566;SDS011;59403;47.456;19.120;2024-01-15T01:11:14;58.80;;;24.23;;
71566;SDS011;59403;47.456;19.120;2024-01-15T01:13:43;52.75;;;24.17;;
71566;SDS011;59403;47.456;19.120;2024-01-15T01:16:09;56.80;;;23.67;;
71566;SDS011;59403;47.456;19.120;2024-01-15T01:18:36;57.03;;;25.37;;
71566;SDS011;59403;47.456;19.120;2024-01-15T01:21:03;52.88;;;23.95;;
71566;SDS011;59403;47.456;19.120;2024-01-15T01:23:29;58.25;;;25.88;;
71566;SDS011;59403;47.456;19.120;2024-01-15T01:25:56;52.47;;;22.50;;
71566;SDS011;59403;47.456;19.120;2024-01-15T01:28:22;54.10;;;25.23;;
71566;SDS011;59403;47.456;19.120;2024-01-15T01:30:50;55.90;;;24.65;;
71566;SDS011;59403;47.456;19.120;2024-01-15T01:33:17;56.53;;;25.20;;
71566;SDS011;59403;47.456;19.120;2024-01-15T01:35:44;50.28;;;23.23;;
71566;SDS011;59403;47.456;19.120;2024-01-15T01:38:11;54.00;;;25.08;;
71566;SDS011;59403;47.456;19.120;2024-01-15T01:40:38;54.10;;;23.57;;
71566;SDS011;59403;47.456;19.120;2024-01-15T01:43:05;56.75;;;24.27;;
71566;SDS011;59403;47.456;19.120;2024-01-15T01:45:31;56.17;;;24.87;;
71566;SDS011;59403;47.456;19.120;2024-01-15T01:48:00;62.88;;;25.75;;
71566;SDS011;59403;47.456;19.120;2024-01-15T01:50:27;71.78;;;29.75;;
71566;SDS011;59403;47.456;19.120;2024-01-15T01:52:54;70.20;;;28.23;;
71566;SDS011;59403;47.456;19.120;2024-01-15T01:55:21;67.65;;;29.48;;
71566;SDS011;59403;47.456;19.120;2024-01-15T01:57:52;80.12;;;31.40;;
71566;SDS011;59403;47.456;19.120;2024-01-15T02:00:20;60.42;;;26.95;;
71566;SDS011;59403;47.456;19.120;2024-01-15T02:05:23;57.43;;;26.20;;
71566;SDS011;59403;47.456;19.120;2024-01-15T02:07:51;57.30;;;25.20;;
71566;SDS011;59403;47.456;19.120;2024-01-15T02:10:18;57.40;;;24.65;;
71566;SDS011;59403;47.456;19.120;2024-01-15T02:12:44;53.70;;;24.40;;
71566;SDS011;59403;47.456;19.120;2024-01-15T02:15:13;59.55;;;24.40;;
71566;SDS011;59403;47.456;19.120;2024-01-15T02:20:23;59.60;;;26.42;;
71566;SDS011;59403;47.456;19.120;2024-01-15T02:22:50;54.40;;;25.52;;
71566;SDS011;59403;47.456;19.120;2024-01-15T02:25:18;54.08;;;24.12;;
71566;SDS011;59403;47.456;19.120;2024-01-15T02:27:45;52.15;;;24.05;;
71566;SDS011;59403;47.456;19.120;2024-01-15T02:30:12;54.67;;;24.20;;
71566;SDS011;59403;47.456;19.120;2024-01-15T02:32:39;60.35;;;26.20;;
71566;SDS011;59403;47.456;19.120;2024-01-15T02:35:06;54.58;;;24.63;;
71566;SDS011;59403;47.456;19.120;2024-01-15T02:37:33;60.92;;;25.58;;
71566;SDS011;59403;47.456;19.120;2024-01-15T02:40:00;53.45;;;25.40;;
71566;SDS011;59403;47.456;19.120;2024-01-15T02:42:28;56.37;;;24.97;;
71566;SDS011;59403;47.456;19.120;2024-01-15T02:44:54;57.00;;;25.02;;
71566;SDS011;59403;47.456;19.120;2024-01-15T02:47:22;53.05;;;24.63;;
71566;SDS011;59403;47.456;19.120;2024-01-15T02:49:50;55.80;;;25.23;;
71566;SDS011;59403;47.456;19.120;2024-01-15T02:52:16;59.60;;;25.42;;
71566;SDS011;59403;47.456;19.120;2024-01-15T02:54:44;56.77;;;24.83;;
71566;SDS011;59403;47.456;19.120;2024-01-15T02:57:11;50.35;;;23.55;;
71566;SDS011;59403;47.456;19.120;2024-01-15T02:59:39;55.20;;;25.65;;
71566;SDS011;59403;47.456;19.120;2024-01-15T03:02:05;57.65;;;24.90;;
71566;SDS011;59403;47.456;19.120;2024-01-15T03:04:32;55.67;;;24.87;;
71566;SDS011;59403;47.456;19.120;2024-01-15T03:06:59;56.17;;;24.83;;
71566;SDS011;59403;47.456;19.120;2024-01-15T03:09:25;51.67;;;24.02;;
71566;SDS011;59403;47.456;19.120;2024-01-15T03:11:52;63.75;;;26.45;;
71566;SDS011;59403;47.456;19.120;2024-01-15T03:14:19;60.53;;;24.63;;
71566;SDS011;59403;47.456;19.120;2024-01-15T03:16:47;56.28;;;25.10;;
71566;SDS011;59403;47.456;19.120;2024-01-15T03:19:14;58.50;;;25.27;;
71566;SDS011;59403;47.456;19.120;2024-01-15T03:21:41;58.95;;;24.95;;
71566;SDS011;59403;47.456;19.120;2024-01-15T03:24:07;58.30;;;25.70;;
71566;SDS011;59403;47.456;19.120;2024-01-15T03:26:34;51.92;;;23.73;;
71566;SDS011;59403;47.456;19.120;2024-01-15T03:29:02;48.92;;;23.00;;
71566;SDS011;59403;47.456;19.120;2024-01-15T03:31:29;52.73;;;23.57;;
71566;SDS011;59403;47.456;19.120;2024-01-15T03:33:57;51.80;;;22.62;;
71566;SDS011;59403;47.456;19.120;2024-01-15T03:36:24;54.83;;;24.05;;
71566;SDS011;59403;47.456;19.120;2024-01-15T03:38:50;53.35;;;23.38;;
71566;SDS011;59403;47.456;19.120;2024-01-15T03:41:17;51.72;;;23.65;;
71566;SDS011;59403;47.456;19.120;2024-01-15T03:43:43;56.70;;;24.20;;
71566;SDS011;59403;47.456;19.120;2024-01-15T03:46:10;52.72;;;24.17;;
71566;SDS011;59403;47.456;19.120;2024-01-15T03:48:37;55.30;;;25.17;;
71566;SDS011;59403;47.456;19.120;2024-01-15T03:51:05;57.67;;;23.40;;
71566;SDS011;59403;47.456;19.120;2024-01-15T03:53:32;56.95;;;23.92;;
71566;SDS011;59403;47.456;19.120;2024-01-15T03:55:58;61.00;;;26.37;;
71566;SDS011;59403;47.456;19.120;2024-01-15T03:58:26;56.63;;;23.73;;
71566;SDS011;59403;47.456;19.120;2024-01-15T04:00:53;59.40;;;25.55;;
71566;SDS011;59403;47.456;19.120;2024-01-15T04:03:19;55.60;;;25.65;;
71566;SDS011;59403;47.456;19.120;2024-01-15T04:05:46;58.53;;;24.92;;
71566;SDS011;59403;47.456;19.120;2024-01-15T04:08:14;58.10;;;24.83;;
71566;SDS011;59403;47.456;19.120;2024-01-15T04:10:41;56.78;;;24.60;;
71566;SDS011;59403;47.456;19.120;2024-01-15T04:13:07;54.30;;;25.02;;
71566;SDS011;59403;47.456;19.120;2024-01-15T04:15:34;56.90;;;25.08;;
71566;SDS011;59403;47.456;19.120;2024-01-15T04:18:01;57.28;;;26.92;;
71566;SDS011;59403;47.456;19.120;2024-01-15T04:20:28;53.33;;;24.93;;
71566;SDS011;59403;47.456;19.120;2024-01-15T04:22:55;54.78;;;24.08;;
71566;SDS011;59403;47.456;19.120;2024-01-15T04:25:23;51.90;;;24.65;;
71566;SDS011;59403;47.456;19.120;2024-01-15T04:27:50;56.33;;;24.85;;
71566;SDS011;59403;47.456;19.120;2024-01-15T04:30:17;55.83;;;23.65;;
71566;SDS011;59403;47.456;19.120;2024-01-15T04:32:43;54.57;;;24.40;;
71566;SDS011;59403;47.456;19.120;2024-01-15T04:35:10;55.22;;;25.42;;
71566;SDS011;59403;47.456;19.120;2024-01-15T04:37:37;53.45;;;25.15;;
71566;SDS011;59403;47.456;19.120;2024-01-15T04:40:04;58.67;;;24.80;;
71566;SDS011;59403;47.456;19.120;2024-01-15T04:42:33;57.67;;;25.35;;
71566;SDS011;59403;47.456;19.120;2024-01-15T04:45:00;58.87;;;25.87;;
71566;SDS011;59403;47.456;19.120;2024-01-15T04:47:26;56.33;;;25.37;;
71566;SDS011;59403;47.456;19.120;2024-01-15T04:49:53;60.58;;;26.00;;
71566;SDS011;59403;47.456;19.120;2024-01-15T04:52:20;56.83;;;25.25;;
71566;SDS011;59403;47.456;19.120;2024-01-15T04:54:46;59.97;;;26.30;;
71566;SDS011;59403;47.456;19.120;2024-01-15T04:57:13;54.33;;;24.73;;
71566;SDS011;59403;47.456;19.120;2024-01-15T04:59:41;59.72;;;26.15;;
71566;SDS011;59403;47.456;19.120;2024-01-15T05:02:08;57.17;;;25.88;;
71566;SDS011;59403;47.456;19.120;2024-01-15T05:04:34;60.25;;;26.40;;
71566;SDS011;59403;47.456;19.120;2024-01-15T05:07:01;54.45;;;24.58;;
71566;SDS011;59403;47.456;19.120;2024-01-15T05:09:28;58.10;;;26.27;;
71566;SDS011;59403;47.456;19.120;2024-01-15T05:11:55;63.35;;;26.70;;
71566;SDS011;59403;47.456;19.120;2024-01-15T05:14:21;59.75;;;26.33;;
71566;SDS011;59403;47.456;19.120;2024-01-15T05:16:49;61.03;;;25.17;;
71566;SDS011;59403;47.456;19.120;2024-01-15T05:19:16;57.65;;;25.40;;
71566;SDS011;59403;47.456;19.120;2024-01-15T05:21:43;56.47;;;25.47;;
71566;SDS011;59403;47.456;19.120;2024-01-15T05:24:10;56.00;;;24.27;;
71566;SDS011;59403;47.456;19.120;2024-01-15T05:26:36;58.92;;;26.08;;
71566;SDS011;59403;47.456;19.120;2024-01-15T05:29:03;62.80;;;27.23;;
71566;SDS011;59403;47.456;19.120;2024-01-15T05:31:29;60.78;;;26.87;;
71566;SDS011;59403;47.456;19.120;2024-01-15T05:33:57;56.63;;;25.67;;
71566;SDS011;59403;47.456;19.120;2024-01-15T05:36:24;61.95;;;26.23;;
71566;SDS011;59403;47.456;19.120;2024-01-15T05:38:51;58.72;;;24.98;;
71566;SDS011;59403;47.456;19.120;2024-01-15T05:41:17;61.15;;;26.05;;
71566;SDS011;59403;47.456;19.120;2024-01-15T05:43:44;57.58;;;25.75;;
71566;SDS011;59403;47.456;19.120;2024-01-15T05:46:11;60.43;;;26.10;;
71566;SDS011;59403;47.456;19.120;2024-01-15T05:48:38;56.10;;;26.23;;
71566;SDS011;59403;47.456;19.120;2024-01-15T05:51:06;61.83;;;27.70;;
71566;SDS011;59403;47.456;19.120;2024-01-15T05:53:32;62.65;;;27.55;;
71566;SDS011;59403;47.456;19.120;2024-01-15T05:55:59;64.40;;;28.15;;
71566;SDS011;59403;47.456;19.120;2024-01-15T05:58:26;57.83;;;25.97;;
71566;SDS011;59403;47.456;19.120;2024-01-15T06:00:53;62.72;;;27.60;;
71566;SDS011;59403;47.456;19.120;2024-01-15T06:03:19;62.33;;;28.90;;
71566;SDS011;59403;47.456;19.120;2024-01-15T06:05:46;59.17;;;26.65;;
71566;SDS011;59403;47.456;19.120;2024-01-15T06:08:14;63.08;;;26.77;;
71566;SDS011;59403;47.456;19.120;2024-01-15T06:10:40;64.23;;;27.10;;
71566;SDS011;59403;47.456;19.120;2024-01-15T06:13:07;65.25;;;29.48;;
71566;SDS011;59403;47.456;19.120;2024-01-15T06:15:34;71.30;;;29.35;;
71566;SDS011;59403;47.456;19.120;2024-01-15T06:18:00;69.07;;;30.00;;
71566;SDS011;59403;47.456;19.120;2024-01-15T06:20:27;71.47;;;30.75;;
71566;SDS011;59403;47.456;19.120;2024-01-15T06:22:54;66.03;;;28.33;;
71566;SDS011;59403;47.456;19.120;2024-01-15T06:25:22;67.65;;;30.35;;
71566;SDS011;59403;47.456;19.120;2024-01-15T06:27:48;71.57;;;29.67;;
71566;SDS011;59403;47.456;19.120;2024-01-15T06:30:15;71.35;;;30.15;;
71566;SDS011;59403;47.456;19.120;2024-01-15T06:32:42;71.15;;;29.40;;
71566;SDS011;59403;47.456;19.120;2024-01-15T06:35:08;75.97;;;31.43;;
71566;SDS011;59403;47.456;19.120;2024-01-15T06:37:36;65.00;;;29.40;;
71566;SDS011;59403;47.456;19.120;2024-01-15T06:40:03;72.90;;;34.03;;
71566;SDS011;59403;47.456;19.120;2024-01-15T06:42:32;68.53;;;31.12;;
71566;SDS011;59403;47.456;19.120;2024-01-15T06:44:59;71.80;;;31.62;;
71566;SDS011;59403;47.456;19.120;2024-01-15T06:47:25;73.50;;;32.33;;
71566;SDS011;59403;47.456;19.120;2024-01-15T06:49:52;76.72;;;32.10;;
71566;SDS011;59403;47.456;19.120;2024-01-15T06:52:19;72.40;;;32.45;;
71566;SDS011;59403;47.456;19.120;2024-01-15T06:54:45;74.37;;;33.67;;
71566;SDS011;59403;47.456;19.120;2024-01-15T06:57:12;80.87;;;33.85;;
71566;SDS011;59403;47.456;19.120;2024-01-15T06:59:40;73.77;;;31.60;;
71566;SDS011;59403;47.456;19.120;2024-01-15T07:02:07;75.05;;;32.17;;
71566;SDS011;59403;47.456;19.120;2024-01-15T07:04:34;72.65;;;33.05;;
71566;SDS011;59403;47.456;19.120;2024-01-15T07:07:00;74.80;;;32.38;;
71566;SDS011;59403;47.456;19.120;2024-01-15T07:09:27;75.07;;;31.73;;
71566;SDS011;59403;47.456;19.120;2024-01-15T07:11:54;75.93;;;33.83;;
71566;SDS011;59403;47.456;19.120;2024-01-15T07:14:22;78.25;;;34.45;;
71566;SDS011;59403;47.456;19.120;2024-01-15T07:16:52;74.85;;;34.03;;
71566;SDS011;59403;47.456;19.120;2024-01-15T07:19:24;75.55;;;34.25;;
71566;SDS011;59403;47.456;19.120;2024-01-15T07:21:51;71.75;;;32.65;;
71566;SDS011;59403;47.456;19.120;2024-01-15T07:24:17;74.07;;;32.47;;
71566;SDS011;59403;47.456;19.120;2024-01-15T07:26:44;79.62;;;32.55;;
71566;SDS011;59403;47.456;19.120;2024-01-15T07:29:11;77.32;;;31.60;;
71566;SDS011;59403;47.456;19.120;2024-01-15T07:31:38;73.28;;;32.13;;
71566;SDS011;59403;47.456;19.120;2024-01-15T07:34:06;77.47;;;33.60;;
71566;SDS011;59403;47.456;19.120;2024-01-15T07:36:32;75.30;;;32.30;;
71566;SDS011;59403;47.456;19.120;2024-01-15T07:38:59;84.35;;;34.05;;
71566;SDS011;59403;47.456;19.120;2024-01-15T07:41:26;76.00;;;34.83;;
71566;SDS011;59403;47.456;19.120;2024-01-15T07:43:52;79.47;;;34.95;;
71566;SDS011;59403;47.456;19.120;2024-01-15T07:46:19;78.05;;;34.05;;
71566;SDS011;59403;47.456;19.120;2024-01-15T07:48:46;86.70;;;37.03;;
71566;SDS011;59403;47.456;19.120;2024-01-15T07:51:14;87.00;;;37.78;;
71566;SDS011;59403;47.456;19.120;2024-01-15T07:53:40;91.10;;;37.55;;
71566;SDS011;59403;47.456;19.120;2024-01-15T07:56:07;79.53;;;36.10;;
71566;SDS011;59403;47.456;19.120;2024-01-15T07:58:34;78.75;;;35.10;;
71566;SDS011;59403;47.456;19.120;2024-01-15T08:01:00;81.80;;;35.90;;
71566;SDS011;59403;47.456;19.120;2024-01-15T08:03:27;83.40;;;34.25;;
71566;SDS011;59403;47.456;19.120;2024-01-15T08:05:57;79.32;;;36.20;;
71566;SDS011;59403;47.456;19.120;2024-01-15T08:08:25;87.20;;;36.88;;
71566;SDS011;59403;47.456;19.120;2024-01-15T08:10:52;81.03;;;33.55;;
71566;SDS011;59403;47.456;19.120;2024-01-15T08:13:19;84.33;;;34.10;;
71566;SDS011;59403;47.456;19.120;2024-01-15T08:15:46;75.68;;;33.15;;
71566;SDS011;59403;47.456;19.120;2024-01-15T08:18:13;73.60;;;31.10;;
71566;SDS011;59403;47.456;19.120;2024-01-15T08:20:39;63.92;;;27.80;;
71566;SDS011;59403;47.456;19.120;2024-01-15T08:23:06;53.50;;;25.05;;
71566;SDS011;59403;47.456;19.120;2024-01-15T08:25:35;55.23;;;23.97;;
71566;SDS011;59403;47.456;19.120;2024-01-15T08:28:01;44.83;;;18.80;;
71566;SDS011;59403;47.456;19.120;2024-01-15T08:30:28;40.47;;;17.85;;
71566;SDS011;59403;47.456;19.120;2024-01-15T08:32:55;40.20;;;19.42;;
71566;SDS011;59403;47.456;19.120;2024-01-15T08:35:25;43.03;;;18.85;;
71566;SDS011;59403;47.456;19.120;2024-01-15T08:37:52;42.97;;;18.57;;
71566;SDS011;59403;47.456;19.120;2024-01-15T08:40:19;36.20;;;15.18;;
71566;SDS011;59403;47.456;19.120;2024-01-15T08:42:47;33.50;;;16.25;;
71566;SDS011;59403;47.456;19.120;2024-01-15T08:45:14;34.70;;;16.08;;
71566;SDS011;59403;47.456;19.120;2024-01-15T08:47:40;35.45;;;16.42;;
71566;SDS011;59403;47.456;19.120;2024-01-15T08:50:07;35.30;;;16.30;;
71566;SDS011;59403;47.456;19.120;2024-01-15T08:52:35;40.12;;;16.85;;
71566;SDS011;59403;47.456;19.120;2024-01-15T08:55:02;33.15;;;14.55;;
71566;SDS011;59403;47.456;19.120;2024-01-15T08:57:29;28.85;;;12.70;;
71566;SDS011;59403;47.456;19.120;2024-01-15T08:59:57;23.73;;;10.43;;
71566;SDS011;59403;47.456;19.120;2024-01-15T09:02:24;22.80;;;10.07;;
71566;SDS011;59403;47.456;19.120;2024-01-15T09:04:51;18.65;;;9.27;;
71566;SDS011;59403;47.456;19.120;2024-01-15T09:07:18;22.67;;;10.15;;
71566;SDS011;59403;47.456;19.120;2024-01-15T09:09:44;20.55;;;9.80;;
71566;SDS011;59403;47.456;19.120;2024-01-15T09:12:11;37.30;;;19.05;;
71566;SDS011;59403;47.456;19.120;2024-01-15T09:14:40;26.70;;;13.43;;
71566;SDS011;59403;47.456;19.120;2024-01-15T09:17:08;26.50;;;12.07;;
71566;SDS011;59403;47.456;19.120;2024-01-15T09:19:35;21.00;;;9.50;;
71566;SDS011;59403;47.456;19.120;2024-01-15T09:22:01;19.23;;;8.23;;
71566;SDS011;59403;47.456;19.120;2024-01-15T09:24:29;21.58;;;8.50;;
71566;SDS011;59403;47.456;19.120;2024-01-15T09:26:55;22.03;;;9.27;;
71566;SDS011;59403;47.456;19.120;2024-01-15T09:29:22;16.62;;;8.20;;
71566;SDS011;59403;47.456;19.120;2024-01-15T09:31:49;19.12;;;8.38;;
71566;SDS011;59403;47.456;19.120;2024-01-15T09:34:17;17.92;;;8.13;;
71566;SDS011;59403;47.456;19.120;2024-01-15T09:36:44;17.83;;;8.18;;
71566;SDS011;59403;47.456;19.120;2024-01-15T09:39:10;15.50;;;8.37;;
71566;SDS011;59403;47.456;19.120;2024-01-15T09:41:37;14.70;;;7.10;;
71566;SDS011;59403;47.456;19.120;2024-01-15T09:44:04;18.27;;;8.43;;
71566;SDS011;59403;47.456;19.120;2024-01-15T09:46:32;16.55;;;8.07;;
71566;SDS011;59403;47.456;19.120;2024-01-15T09:48:59;17.42;;;7.62;;
71566;SDS011;59403;47.456;19.120;2024-01-15T09:51:28;16.83;;;8.00;;
71566;SDS011;59403;47.456;19.120;2024-01-15T09:53:58;17.10;;;7.60;;
71566;SDS011;59403;47.456;19.120;2024-01-15T09:56:24;15.48;;;7.55;;
71566;SDS011;59403;47.456;19.120;2024-01-15T09:58:51;15.77;;;7.32;;
71566;SDS011;59403;47.456;19.120;2024-01-15T10:01:19;17.48;;;7.40;;
71566;SDS011;59403;47.456;19.120;2024-01-15T10:03:46;17.67;;;7.50;;
71566;SDS011;59403;47.456;19.120;2024-01-15T10:06:13;14.65;;;6.95;;
71566;SDS011;59403;47.456;19.120;2024-01-15T10:08:43;16.20;;;6.82;;
71566;SDS011;59403;47.456;19.120;2024-01-15T10:11:13;14.63;;;6.43;;
71566;SDS011;59403;47.456;19.120;2024-01-15T10:13:40;14.40;;;7.65;;
71566;SDS011;59403;47.456;19.120;2024-01-15T10:16:07;11.83;;;6.33;;
71566;SDS011;59403;47.456;19.120;2024-01-15T10:18:34;12.35;;;6.30;;
71566;SDS011;59403;47.456;19.120;2024-01-15T10:21:02;12.75;;;6.15;;
71566;SDS011;59403;47.456;19.120;2024-01-15T10:23:28;11.85;;;6.65;;
71566;SDS011;59403;47.456;19.120;2024-01-15T10:25:57;12.13;;;5.78;;
71566;SDS011;59403;47.456;19.120;2024-01-15T10:28:26;15.07;;;6.70;;
71566;SDS011;59403;47.456;19.120;2024-01-15T10:30:56;13.00;;;6.47;;
71566;SDS011;59403;47.456;19.120;2024-01-15T10:33:24;13.23;;;6.90;;
71566;SDS011;59403;47.456;19.120;2024-01-15T10:35:53;13.68;;;6.30;;
71566;SDS011;59403;47.456;19.120;2024-01-15T10:38:21;11.45;;;5.03;;
71566;SDS011;59403;47.456;19.120;2024-01-15T10:40:47;16.57;;;6.83;;
71566;SDS011;59403;47.456;19.120;2024-01-15T10:43:18;12.77;;;6.55;;
71566;SDS011;59403;47.456;19.120;2024-01-15T10:45:45;15.70;;;6.95;;
71566;SDS011;59403;47.456;19.120;2024-01-15T10:48:12;12.55;;;5.85;;
71566;SDS011;59403;47.456;19.120;2024-01-15T10:50:39;12.20;;;5.68;;
71566;SDS011;59403;47.456;19.120;2024-01-15T10:53:06;12.60;;;6.03;;
71566;SDS011;59403;47.456;19.120;2024-01-15T10:55:35;12.00;;;5.57;;
71566;SDS011;59403;47.456;19.120;2024-01-15T10:58:02;14.68;;;5.68;;
71566;SDS011;59403;47.456;19.120;2024-01-15T11:00:31;12.05;;;5.62;;
71566;SDS011;59403;47.456;19.120;2024-01-15T11:02:58;13.25;;;6.40;;
71566;SDS011;59403;47.456;19.120;2024-01-15T11:05:27;12.97;;;5.40;;
71566;SDS011;59403;47.456;19.120;2024-01-15T11:07:54;10.85;;;5.30;;
71566;SDS011;59403;47.456;19.120;2024-01-15T11:13:08;10.18;;;4.93;;
71566;SDS011;59403;47.456;19.120;2024-01-15T11:18:22;8.33;;;4.27;;
71566;SDS011;59403;47.456;19.120;2024-01-15T11:23:53;8.07;;;4.20;;
71566;SDS011;59403;47.456;19.120;2024-01-15T11:26:32;8.65;;;4.18;;
71566;SDS011;59403;47.456;19.120;2024-01-15T11:29:01;9.55;;;4.65;;
71566;SDS011;59403;47.456;19.120;2024-01-15T11:37:27;9.75;;;4.57;;
71566;SDS011;59403;47.456;19.120;2024-01-15T11:39:55;9.05;;;3.85;;
71566;SDS011;59403;47.456;19.120;2024-01-15T11:42:22;9.18;;;4.82;;
71566;SDS011;59403;47.456;19.120;2024-01-15T11:44:49;9.57;;;4.30;;
71566;SDS011;59403;47.456;19.120;2024-01-15T11:47:21;10.15;;;4.50;;
71566;SDS011;59403;47.456;19.120;2024-01-15T11:50:09;9.77;;;4.87;;
71566;SDS011;59403;47.456;19.120;2024-01-15T11:52:37;10.25;;;4.47;;
71566;SDS011;59403;47.456;19.120;2024-01-15T11:55:10;8.52;;;4.32;;
71566;SDS011;59403;47.456;19.120;2024-01-15T11:57:40;8.70;;;4.30;;
71566;SDS011;59403;47.456;19.120;2024-01-15T12:00:09;13.40;;;5.20;;
71566;SDS011;59403;47.456;19.120;2024-01-15T12:02:39;10.38;;;4.62;;
71566;SDS011;59403;47.456;19.120;2024-01-15T12:05:06;9.52;;;4.65;;
71566;SDS011;59403;47.456;19.120;2024-01-15T12:07:33;10.77;;;5.35;;
71566;SDS011;59403;47.456;19.120;2024-01-15T12:10:00;8.20;;;3.30;;
71566;SDS011;59403;47.456;19.120;2024-01-15T12:12:29;9.18;;;4.32;;
71566;SDS011;59403;47.456;19.120;2024-01-15T12:15:04;10.95;;;4.55;;
71566;SDS011;59403;47.456;19.120;2024-01-15T12:17:31;8.25;;;4.07;;
71566;SDS011;59403;47.456;19.120;2024-01-15T12:19:59;12.15;;;4.55;;
71566;SDS011;59403;47.456;19.120;2024-01-15T12:22:26;7.37;;;3.87;;
71566;SDS011;59403;47.456;19.120;2024-01-15T12:24:53;6.60;;;3.78;;
71566;SDS011;59403;47.456;19.120;2024-01-15T12:27:20;9.98;;;5.12;;
71566;SDS011;59403;47.456;19.120;2024-01-15T12:29:46;9.68;;;3.92;;
71566;SDS011;59403;47.456;19.120;2024-01-15T12:32:13;7.50;;;3.40;;
71566;SDS011;59403;47.456;19.120;2024-01-15T12:34:40;7.50;;;3.67;;
71566;SDS011;59403;47.456;19.120;2024-01-15T12:37:11;8.27;;;3.70;;
71566;SDS011;59403;47.456;19.120;2024-01-15T12:39:37;6.53;;;3.72;;
71566;SDS011;59403;47.456;19.120;2024-01-15T12:42:04;7.57;;;3.45;;
71566;SDS011;59403;47.456;19.120;2024-01-15T12:44:31;6.70;;;3.30;;
71566;SDS011;59403;47.456;19.120;2024-01-15T12:46:58;8.27;;;3.63;;
71566;SDS011;59403;47.456;19.120;2024-01-15T12:49:25;6.97;;;3.55;;
71566;SDS011;59403;47.456;19.120;2024-01-15T12:51:52;7.57;;;3.67;;
71566;SDS011;59403;47.456;19.120;2024-01-15T12:54:20;5.95;;;2.95;;
71566;SDS011;59403;47.456;19.120;2024-01-15T12:56:47;7.55;;;3.55;;
71566;SDS011;59403;47.456;19.120;2024-01-15T12:59:13;6.80;;;3.40;;
71566;SDS011;59403;47.456;19.120;2024-01-15T13:01:40;9.43;;;3.62;;
71566;SDS011;59403;47.456;19.120;2024-01-15T13:04:07;7.68;;;3.90;;
71566;SDS011;59403;47.456;19.120;2024-01-15T13:06:34;9.87;;;4.17;;
71566;SDS011;59403;47.456;19.120;2024-01-15T13:09:02;7.43;;;3.60;;
71566;SDS011;59403;47.456;19.120;2024-01-15T13:11:31;5.75;;;3.20;;
71566;SDS011;59403;47.456;19.120;2024-01-15T13:13:58;7.45;;;3.80;;
71566;SDS011;59403;47.456;19.120;2024-01-15T13:16:24;7.07;;;3.47;;
71566;SDS011;59403;47.456;19.120;2024-01-15T13:18:53;6.40;;;3.03;;
71566;SDS011;59403;47.456;19.120;2024-01-15T13:21:20;6.43;;;3.17;;
71566;SDS011;59403;47.456;19.120;2024-01-15T13:23:47;7.15;;;3.22;;
71566;SDS011;59403;47.456;19.120;2024-01-15T13:26:13;6.45;;;3.30;;
71566;SDS011;59403;47.456;19.120;2024-01-15T13:28:41;6.43;;;3.10;;
71566;SDS011;59403;47.456;19.120;2024-01-15T13:31:08;7.65;;;3.40;;
71566;SDS011;59403;47.456;19.120;2024-01-15T13:33:34;9.43;;;3.37;;
71566;SDS011;59403;47.456;19.120;2024-01-15T13:36:01;10.63;;;3.85;;
71566;SDS011;59403;47.456;19.120;2024-01-15T13:38:28;7.18;;;3.53;;
71566;SDS011;59403;47.456;19.120;2024-01-15T13:41:01;7.00;;;3.30;;
71566;SDS011;59403;47.456;19.120;2024-01-15T13:43:27;7.50;;;3.22;;
71566;SDS011;59403;47.456;19.120;2024-01-15T13:45:55;7.25;;;3.10;;
71566;SDS011;59403;47.456;19.120;2024-01-15T13:48:22;7.37;;;3.12;;
71566;SDS011;59403;47.456;19.120;2024-01-15T13:50:48;8.43;;;3.65;;
71566;SDS011;59403;47.456;19.120;2024-01-15T13:53:15;6.70;;;2.77;;
71566;SDS011;59403;47.456;19.120;2024-01-15T13:55:44;6.97;;;2.78;;
71566;SDS011;59403;47.456;19.120;2024-01-15T13:58:10;7.35;;;2.70;;
71566;SDS011;59403;47.456;19.120;2024-01-15T14:00:38;5.43;;;2.90;;
71566;SDS011;59403;47.456;19.120;2024-01-15T14:03:06;5.82;;;2.90;;
71566;SDS011;59403;47.456;19.120;2024-01-15T14:05:33;7.70;;;2.77;;
71566;SDS011;59403;47.456;19.120;2024-01-15T14:08:00;5.50;;;2.45;;
71566;SDS011;59403;47.456;19.120;2024-01-15T14:10:26;6.05;;;2.50;;
71566;SDS011;59403;47.456;19.120;2024-01-15T14:12:53;6.35;;;2.80;;
71566;SDS011;59403;47.456;19.120;2024-01-15T14:15:20;7.45;;;3.30;;
71566;SDS011;59403;47.456;19.120;2024-01-15T14:17:47;6.93;;;3.33;;
71566;SDS011;59403;47.456;19.120;2024-01-15T14:20:15;7.95;;;3.62;;
71566;SDS011;59403;47.456;19.120;2024-01-15T14:22:42;8.60;;;3.25;;
71566;SDS011;59403;47.456;19.120;2024-01-15T14:25:10;7.28;;;3.50;;
71566;SDS011;59403;47.456;19.120;2024-01-15T14:27:36;6.95;;;3.25;;
71566;SDS011;59403;47.456;19.120;2024-01-15T14:30:03;7.27;;;3.13;;
71566;SDS011;59403;47.456;19.120;2024-01-15T14:32:34;6.03;;;3.30;;
71566;SDS011;59403;47.456;19.120;2024-01-15T14:35:01;6.70;;;3.00;;